Time;durP1;ratioP1;P1;durP2;ratioP2;P2;SDS_P1;SDS_P2;PMS_P1;PMS_P2;Temp;Humidity;BMP_temperature;BMP_pressure;BME280_temperature;BME280_humidity;BME280_pressure;Samples;Min_cycle;Max_cycle;Signal;HPM_P1;HPM_P2
2023/02/25 00:00:22;;;;;;;7.25;2.33;;;21.10;53.40;;;;;;5050546;28;20223;-55
2023/02/25 00:02:53;;;;;;;4.43;2.13;;;21.20;53.50;;;;;;5050202;28;20298;-56
2023/02/25 00:05:24;;;;;;;5.22;1.92;;;21.20;53.40;;;;;;5053115;28;20191;-55
2023/02/25 00:07:55;;;;;;;6.10;2.40;;;21.20;53.30;;;;;;5053840;28;20191;-55
2023/02/25 00:10:26;;;;;;;7.47;1.98;;;21.20;53.30;;;;;;5054154;28;20207;-54
2023/02/25 00:12:57;;;;;;;5.32;1.92;;;21.20;53.30;;;;;;5053728;28;20212;-55
2023/02/25 00:15:29;;;;;;;3.38;1.75;;;21.20;53.20;;;;;;5054125;28;20200;-55
2023/02/25 00:18:00;;;;;;;3.65;1.88;;;21.20;53.20;;;;;;5054195;28;20590;-55
2023/02/25 00:20:30;;;;;;;4.38;2.17;;;21.30;53.20;;;;;;5054123;28;20226;-55
2023/02/25 00:23:01;;;;;;;3.13;1.52;;;21.30;53.20;;;;;;5053892;28;20219;-55
2023/02/25 00:25:32;;;;;;;3.60;1.48;;;21.30;53.20;;;;;;5054182;28;20613;-54
2023/02/25 00:28:04;;;;;;;4.82;1.73;;;21.30;53.00;;;;;;5054035;28;20729;-55
2023/02/25 00:30:37;;;;;;;4.00;1.40;;;21.30;53.00;;;;;;5053395;28;20686;-56
2023/02/25 00:33:08;;;;;;;3.58;1.17;;;21.40;53.30;;;;;;5053421;28;20212;-55
2023/02/25 00:35:41;;;;;;;2.63;1.27;;;21.40;53.00;;;;;;5053686;28;20682;-54
2023/02/25 00:38:12;;;;;;;5.00;2.20;;;21.40;52.90;;;;;;5053557;28;20191;-55
2023/02/25 00:40:45;;;;;;;4.38;1.55;;;21.40;52.90;;;;;;5053956;28;20278;-53
2023/02/25 00:43:16;;;;;;;3.92;1.77;;;21.40;52.90;;;;;;5053648;28;20215;-54
2023/02/25 00:45:49;;;;;;;4.43;1.67;;;21.40;52.90;;;;;;5053670;28;20694;-53
2023/02/25 00:48:21;;;;;;;1.75;1.20;;;21.50;53.10;;;;;;5053647;28;20199;-53
2023/02/25 00:50:51;;;;;;;2.72;1.48;;;21.50;53.20;;;;;;5053305;28;20261;-55
2023/02/25 00:53:22;;;;;;;2.75;1.45;;;21.50;53.20;;;;;;5052696;28;20219;-54
2023/02/25 00:56:01;;;;;;;2.85;1.33;;;21.50;53.10;;;;;;5053308;28;20202;-54
2023/02/25 00:58:32;;;;;;;2.55;1.30;;;21.60;53.20;;;;;;5053115;28;20605;-54
2023/02/25 01:01:05;;;;;;;3.45;1.40;;;21.60;53.10;;;;;;5053274;28;20718;-55
2023/02/25 01:03:36;;;;;;;3.25;1.10;;;21.60;53.10;;;;;;5052820;28;20648;-55
2023/02/25 01:06:09;;;;;;;2.60;1.15;;;21.60;53.10;;;;;;5052824;28;20257;-53
2023/02/25 01:08:39;;;;;;;2.05;1.35;;;21.60;53.00;;;;;;5052823;28;20297;-56
2023/02/25 01:11:20;;;;;;;2.28;1.13;;;21.70;53.10;;;;;;5052872;28;20199;-55
2023/02/25 01:13:52;;;;;;;2.55;1.33;;;21.70;53.10;;;;;;5052346;28;20199;-55
2023/02/25 01:16:27;;;;;;;2.65;1.38;;;21.70;53.10;;;;;;5052730;28;20199;-54
2023/02/25 01:18:59;;;;;;;3.55;1.60;;;21.70;53.10;;;;;;5052548;28;20228;-55
2023/02/25 01:21:31;;;;;;;2.90;1.48;;;21.80;53.20;;;;;;5052677;28;20253;-54
2023/02/25 01:24:05;;;;;;;1.42;0.95;;;21.80;53.30;;;;;;5052676;28;20678;-55
2023/02/25 01:26:36;;;;;;;1.50;1.10;;;21.80;53.60;;;;;;5052606;28;20200;-55
2023/02/25 01:29:09;;;;;;;2.50;1.08;;;21.80;53.80;;;;;;5052861;28;20617;-55
2023/02/25 01:31:42;;;;;;;1.90;1.20;;;21.90;54.20;;;;;;5052727;28;20191;-54
2023/02/25 01:34:14;;;;;;;2.55;1.30;;;21.90;54.20;;;;;;5052602;28;20202;-54
2023/02/25 01:36:45;;;;;;;1.70;1.10;;;21.90;54.20;;;;;;5052018;28;20607;-54
2023/02/25 01:39:17;;;;;;;2.42;1.20;;;21.90;54.20;;;;;;5048812;28;20265;-54
2023/02/25 01:41:49;;;;;;;2.75;1.20;;;22.00;54.40;;;;;;5052397;28;20216;-55
2023/02/25 01:44:21;;;;;;;2.13;1.20;;;22.00;54.40;;;;;;5052194;28;20713;-54
2023/02/25 01:46:55;;;;;;;2.72;1.05;;;22.00;54.20;;;;;;5052105;28;20623;-55
2023/02/25 01:49:31;;;;;;;2.70;0.98;;;22.10;54.40;;;;;;5051914;28;20261;-54
2023/02/25 01:52:05;;;;;;;2.22;1.45;;;22.10;54.30;;;;;;5052172;28;20222;-54
2023/02/25 01:54:36;;;;;;;2.33;1.00;;;22.10;54.30;;;;;;5042354;28;20250;-53
2023/02/25 01:57:10;;;;;;;1.95;0.80;;;22.20;54.40;;;;;;5041328;28;20257;-53
2023/02/25 01:59:42;;;;;;;1.52;1.00;;;22.10;54.40;;;;;;5031861;28;20224;-54
2023/02/25 02:02:16;;;;;;;2.20;1.00;;;22.20;54.30;;;;;;5038957;28;20691;-54
2023/02/25 02:04:49;;;;;;;2.30;0.80;;;22.20;54.20;;;;;;5051760;28;20195;-54
2023/02/25 02:07:20;;;;;;;1.73;1.15;;;22.20;54.10;;;;;;5051516;28;20223;-54
2023/02/25 02:09:57;;;;;;;2.08;1.05;;;22.20;54.10;;;;;;5051363;28;20560;-52
2023/02/25 02:12:30;;;;;;;1.27;0.85;;;22.30;54.00;;;;;;5051407;28;20230;-54
2023/02/25 02:15:02;;;;;;;1.45;0.90;;;22.30;53.90;;;;;;5051678;28;20257;-50
2023/02/25 02:17:40;;;;;;;1.88;0.90;;;22.30;53.80;;;;;;5051486;28;20207;-54
2023/02/25 02:20:19;;;;;;;1.40;1.00;;;22.30;53.70;;;;;;5051517;28;20230;-52
2023/02/25 02:23:23;;;;;;;1.20;0.90;;;22.40;53.70;;;;;;5051064;28;20250;-55
2023/02/25 02:26:26;;;;;;;1.42;0.80;;;22.30;53.50;;;;;;5041827;28;20229;-51
2023/02/25 02:29:44;;;;;;;2.17;1.00;;;22.40;53.50;;;;;;5051404;28;20191;-55
2023/02/25 02:32:29;;;;;;;2.60;1.00;;;22.40;53.40;;;;;;5050860;28;20308;-52
2023/02/25 02:35:05;;;;;;;2.53;1.00;;;22.40;53.30;;;;;;5051399;28;20199;-53
2023/02/25 02:37:44;;;;;;;1.90;0.80;;;22.40;53.30;;;;;;5051059;28;20260;-54
2023/02/25 02:40:28;;;;;;;1.25;0.68;;;22.50;53.30;;;;;;5051177;28;20281;-54
2023/02/25 02:43:12;;;;;;;1.33;0.70;;;22.50;53.10;;;;;;5050911;28;20215;-54
2023/02/25 02:45:48;;;;;;;1.63;0.80;;;22.50;53.10;;;;;;5051113;28;20199;-54
2023/02/25 02:48:23;;;;;;;1.95;0.75;;;22.50;53.00;;;;;;5051443;28;20253;-53
2023/02/25 02:51:00;;;;;;;1.48;0.55;;;22.50;53.50;;;;;;5051971;28;20724;-53
2023/02/25 02:53:38;;;;;;;1.95;0.88;;;22.50;52.90;;;;;;5051113;28;20211;-55
2023/02/25 02:56:14;;;;;;;1.27;0.60;;;22.50;52.80;;;;;;5051021;28;20203;-54
2023/02/25 02:58:48;;;;;;;1.25;0.80;;;22.60;52.80;;;;;;5051301;28;20205;-54
2023/02/25 03:01:22;;;;;;;1.48;0.50;;;22.60;52.70;;;;;;5051803;28;20313;-55
2023/02/25 03:03:58;;;;;;;0.65;0.55;;;22.60;52.70;;;;;;5051794;28;20200;-55
2023/02/25 03:06:32;;;;;;;2.65;0.82;;;22.60;52.70;;;;;;5051597;28;20202;-56
2023/02/25 03:09:07;;;;;;;2.63;1.10;;;22.60;52.60;;;;;;5051419;28;20251;-56
2023/02/25 03:11:38;;;;;;;0.85;0.70;;;22.60;52.60;;;;;;5051447;28;20198;-55
2023/02/25 03:14:09;;;;;;;1.60;0.68;;;22.70;52.70;;;;;;5050859;28;20201;-55
2023/02/25 03:16:44;;;;;;;3.28;0.68;;;22.70;52.70;;;;;;5050647;28;20238;-55
2023/02/25 03:19:19;;;;;;;1.40;0.50;;;22.70;52.60;;;;;;5050545;28;20199;-55
2023/02/25 03:21:55;;;;;;;0.90;0.50;;;22.70;52.60;;;;;;5050822;28;20284;-50
2023/02/25 03:24:31;;;;;;;4.22;1.10;;;22.80;52.50;;;;;;5050821;28;20676;-55
2023/02/25 03:27:02;;;;;;;4.07;0.90;;;22.80;52.30;;;;;;5050965;28;20592;-55
2023/02/25 03:29:33;;;;;;;3.78;1.00;;;22.70;52.30;;;;;;5050845;28;20510;-52
2023/02/25 03:32:08;;;;;;;3.25;1.15;;;22.60;52.30;;;;;;5050502;28;20224;-53
2023/02/25 03:34:43;;;;;;;3.25;1.00;;;22.60;52.30;;;;;;5050810;28;20195;-51
2023/02/25 03:37:18;;;;;;;2.88;0.73;;;22.50;52.40;;;;;;5047766;28;20191;-57
2023/02/25 03:39:53;;;;;;;5.57;0.98;;;22.50;52.70;;;;;;5054800;28;20756;-57
2023/02/25 03:42:29;;;;;;;2.20;0.90;;;22.40;52.70;;;;;;5054635;28;20708;-58
2023/02/25 03:45:03;;;;;;;1.83;0.70;;;22.40;52.90;;;;;;5054599;28;20195;-58
2023/02/25 03:47:38;;;;;;;3.50;1.02;;;22.40;53.10;;;;;;5054546;28;20683;-57
2023/02/25 03:50:15;;;;;;;3.00;0.73;;;22.40;53.30;;;;;;5054388;28;20509;-57
2023/02/25 03:52:46;;;;;;;3.55;0.85;;;22.40;53.30;;;;;;5054625;28;20215;-57
2023/02/25 03:55:17;;;;;;;2.05;0.85;;;22.40;53.40;;;;;;5054522;28;20199;-58
2023/02/25 03:57:50;;;;;;;3.05;0.93;;;22.40;53.40;;;;;;5054416;28;20281;-58
2023/02/25 04:00:24;;;;;;;1.38;0.77;;;22.50;53.40;;;;;;5054572;28;20276;-58
2023/02/25 04:02:54;;;;;;;1.92;0.80;;;22.50;53.40;;;;;;5052422;28;20212;-58
2023/02/25 04:05:27;;;;;;;1.95;0.88;;;22.60;53.30;;;;;;5034586;28;20192;-58
2023/02/25 04:07:59;;;;;;;2.97;0.88;;;22.60;53.30;;;;;;5036704;28;20196;-57
2023/02/25 04:10:29;;;;;;;1.85;0.68;;;22.70;53.30;;;;;;5042666;28;20204;-57
2023/02/25 04:13:00;;;;;;;3.45;0.60;;;22.70;53.20;;;;;;5054408;28;20219;-58
2023/02/25 04:15:31;;;;;;;2.92;0.80;;;22.70;53.10;;;;;;5054294;28;20207;-58
2023/02/25 04:18:02;;;;;;;0.73;0.70;;;22.80;53.10;;;;;;5053892;28;20199;-57
2023/02/25 04:20:34;;;;;;;3.13;0.55;;;22.80;53.00;;;;;;5053355;28;20699;-58
2023/02/25 04:23:05;;;;;;;0.95;0.60;;;22.80;53.00;;;;;;5053016;28;20215;-58
2023/02/25 04:25:36;;;;;;;1.80;0.70;;;22.80;52.90;;;;;;5054016;28;20199;-58
2023/02/25 04:28:07;;;;;;;1.60;0.60;;;22.90;52.90;;;;;;5033994;28;20204;-58
2023/02/25 04:30:38;;;;;;;1.55;0.75;;;22.90;52.80;;;;;;5033813;28;20203;-58
2023/02/25 04:33:08;;;;;;;1.08;0.77;;;22.90;52.80;;;;;;5033943;28;20624;-58
2023/02/25 04:35:41;;;;;;;1.70;0.60;;;22.90;52.70;;;;;;5034067;28;20204;-58
2023/02/25 04:38:11;;;;;;;1.52;0.90;;;23.00;52.80;;;;;;5033713;28;20611;-58
2023/02/25 04:43:34;;;;;;;1.20;0.60;;;23.00;52.60;;;;;;5032925;28;20216;-57
2023/02/25 04:46:10;;;;;;;2.22;0.70;;;23.10;52.50;;;;;;5032470;28;20200;-58
2023/02/25 04:48:50;;;;;;;1.02;0.65;;;23.10;52.50;;;;;;5032867;28;20286;-58
2023/02/25 04:51:28;;;;;;;1.42;0.70;;;23.10;52.40;;;;;;5032852;28;20214;-57
2023/02/25 04:56:49;;;;;;;1.33;0.75;;;23.20;52.30;;;;;;5042367;28;20211;-58
2023/02/25 05:02:18;;;;;;;1.77;0.68;;;23.20;52.30;;;;;;5053049;28;20216;-58
2023/02/25 05:05:00;;;;;;;1.63;0.60;;;23.20;52.20;;;;;;5053131;28;20191;-58
2023/02/25 05:07:53;;;;;;;2.03;0.70;;;23.20;52.20;;;;;;5051888;28;20223;-57
2023/02/25 05:13:22;;;;;;;2.42;0.68;;;23.30;52.20;;;;;;5052338;28;20234;-57
2023/02/25 05:16:05;;;;;;;1.00;0.80;;;23.30;52.10;;;;;;5052951;28;20290;-57
2023/02/25 05:18:46;;;;;;;1.88;0.82;;;23.30;52.00;;;;;;5052855;28;20195;-57
2023/02/25 05:21:26;;;;;;;1.13;0.50;;;23.30;52.00;;;;;;5051908;28;20227;-58
2023/02/25 05:27:17;;;;;;;1.33;0.70;;;23.30;52.00;;;;;;5051484;28;20196;-58
2023/02/25 05:33:16;;;;;;;1.35;0.70;;;23.40;51.90;;;;;;5034927;28;20297;-58
2023/02/25 05:35:50;;;;;;;1.38;0.80;;;23.40;51.80;;;;;;5050802;28;20199;-58
2023/02/25 05:38:26;;;;;;;1.35;0.75;;;23.40;51.70;;;;;;5034520;28;20638;-59
2023/02/25 05:41:18;;;;;;;1.05;0.63;;;23.40;51.60;;;;;;5052254;28;20321;-58
2023/02/25 05:44:08;;;;;;;1.05;0.57;;;23.40;51.70;;;;;;5034083;28;20634;-59
2023/02/25 05:46:52;;;;;;;1.13;0.70;;;23.40;51.60;;;;;;5026388;28;20200;-58
2023/02/25 05:49:41;;;;;;;0.95;0.65;;;23.40;51.60;;;;;;5028026;28;20231;-59
2023/02/25 05:52:20;;;;;;;1.48;0.80;;;23.40;51.60;;;;;;5008416;28;20692;-59
2023/02/25 05:54:55;;;;;;;1.80;0.57;;;23.50;51.60;;;;;;5014036;28;20239;-58
2023/02/25 05:57:58;;;;;;;1.08;0.60;;;23.50;51.50;;;;;;5012896;28;20241;-59
2023/02/25 06:00:43;;;;;;;2.30;0.77;;;23.50;51.60;;;;;;5051640;28;20227;-59
2023/02/25 06:03:18;;;;;;;1.75;0.45;;;23.50;51.50;;;;;;5030328;28;20227;-58
2023/02/25 06:05:52;;;;;;;1.02;0.60;;;23.50;51.40;;;;;;5031915;28;20239;-59
2023/02/25 06:08:27;;;;;;;1.85;0.80;;;23.60;51.40;;;;;;5032137;28;20232;-59
2023/02/25 06:10:59;;;;;;;1.40;0.65;;;23.50;51.40;;;;;;5014785;28;20210;-57
2023/02/25 06:13:31;;;;;;;0.90;0.50;;;23.60;52.00;;;;;;5000812;28;20212;-57
2023/02/25 06:16:06;;;;;;;2.25;0.80;;;23.60;51.40;;;;;;5031608;28;20227;-57
2023/02/25 06:18:37;;;;;;;2.08;0.60;;;23.60;51.30;;;;;;5035922;28;20226;-57
2023/02/25 06:21:09;;;;;;;1.67;1.00;;;23.60;51.30;;;;;;5051712;28;20288;-57
2023/02/25 06:23:42;;;;;;;2.03;0.80;;;23.60;51.30;;;;;;5051720;28;20327;-58
2023/02/25 06:26:15;;;;;;;1.92;0.77;;;23.60;51.20;;;;;;5051660;28;20578;-57
2023/02/25 06:28:46;;;;;;;1.00;0.70;;;23.60;51.20;;;;;;5051836;28;20203;-58
2023/02/25 06:31:21;;;;;;;1.98;0.77;;;23.60;51.20;;;;;;5051297;28;20570;-57
2023/02/25 06:33:52;;;;;;;1.77;0.60;;;23.60;51.20;;;;;;5051258;28;20201;-57
2023/02/25 06:36:23;;;;;;;1.38;0.70;;;23.60;51.20;;;;;;5051793;28;20286;-59
2023/02/25 06:38:53;;;;;;;1.65;0.65;;;23.60;51.20;;;;;;5051457;28;20274;-57
2023/02/25 06:41:25;;;;;;;2.03;0.80;;;23.60;51.80;;;;;;5051562;28;20226;-57
2023/02/25 06:43:56;;;;;;;0.70;0.65;;;23.60;51.20;;;;;;5051730;28;20231;-57
2023/02/25 06:46:29;;;;;;;1.92;0.68;;;23.70;51.20;;;;;;5051690;28;20200;-59
2023/02/25 06:48:59;;;;;;;1.13;0.50;;;23.60;51.10;;;;;;5051602;28;20254;-58
2023/02/25 06:51:30;;;;;;;1.30;0.70;;;23.60;51.00;;;;;;5051460;28;20286;-58
2023/02/25 06:54:03;;;;;;;1.30;0.70;;;23.60;51.00;;;;;;5051242;28;20198;-58
2023/02/25 06:56:34;;;;;;;1.10;0.60;;;23.60;50.90;;;;;;5051512;28;20217;-58
2023/02/25 06:59:05;;;;;;;1.38;0.70;;;23.60;50.80;;;;;;5051386;28;20195;-57
2023/02/25 07:01:38;;;;;;;1.83;0.73;;;23.60;50.80;;;;;;5049919;28;20258;-58
2023/02/25 07:04:08;;;;;;;1.40;0.73;;;23.60;50.80;;;;;;5051207;28;20640;-58
2023/02/25 07:06:39;;;;;;;2.58;0.90;;;23.60;50.80;;;;;;5051232;28;20196;-58
2023/02/25 07:09:10;;;;;;;1.45;0.68;;;23.50;50.70;;;;;;5051283;28;20550;-57
2023/02/25 07:11:41;;;;;;;0.88;0.50;;;23.60;50.70;;;;;;5051009;28;20209;-57
2023/02/25 07:14:15;;;;;;;1.50;0.60;;;23.50;50.70;;;;;;5054703;28;20199;-58
2023/02/25 07:16:47;;;;;;;1.67;0.60;;;23.50;50.70;;;;;;5055343;28;20206;-57
2023/02/25 07:19:18;;;;;;;1.73;0.80;;;23.50;50.70;;;;;;5055532;28;20237;-57
2023/02/25 07:21:49;;;;;;;2.20;0.82;;;23.50;50.70;;;;;;5055015;28;20226;-58
2023/02/25 07:24:20;;;;;;;0.73;0.60;;;23.50;50.70;;;;;;5054880;28;20207;-57
2023/02/25 07:26:51;;;;;;;2.78;0.70;;;23.50;50.70;;;;;;5054451;28;20203;-58
2023/02/25 07:29:21;;;;;;;1.00;0.80;;;23.50;50.70;;;;;;5054749;28;20196;-57
2023/02/25 07:31:54;;;;;;;2.47;0.63;;;23.50;50.70;;;;;;5054499;28;20327;-58
2023/02/25 07:34:25;;;;;;;1.70;0.80;;;23.50;50.70;;;;;;5054643;28;20202;-58
2023/02/25 07:36:56;;;;;;;1.92;0.70;;;23.50;50.70;;;;;;5054721;28;20277;-56
2023/02/25 07:39:27;;;;;;;2.10;0.60;;;23.40;50.60;;;;;;5054316;28;20203;-59
2023/02/25 07:41:58;;;;;;;2.15;0.70;;;23.40;50.60;;;;;;5051239;28;20223;-57
2023/02/25 07:44:29;;;;;;;1.15;0.55;;;23.40;50.60;;;;;;5044045;28;20638;-57
2023/02/25 07:47:03;;;;;;;0.68;0.55;;;23.40;50.60;;;;;;5034864;28;20227;-58
2023/02/25 07:49:33;;;;;;;0.90;0.50;;;23.40;50.60;;;;;;5017342;28;20755;-60
2023/02/25 07:52:04;;;;;;;1.50;0.65;;;23.30;50.60;;;;;;5035012;28;20302;-58
2023/02/25 07:54:35;;;;;;;0.73;0.70;;;23.30;50.60;;;;;;5034783;28;20628;-59
2023/02/25 07:57:06;;;;;;;1.27;0.73;;;23.30;50.60;;;;;;5046523;28;20209;-60
2023/02/25 07:59:37;;;;;;;0.95;0.60;;;23.30;50.60;;;;;;5054513;28;20199;-60
2023/02/25 08:02:10;;;;;;;1.27;0.70;;;23.30;50.60;;;;;;5054568;28;20592;-60
2023/02/25 08:04:41;;;;;;;1.48;0.73;;;23.30;50.60;;;;;;5054124;28;20286;-59
2023/02/25 08:07:11;;;;;;;1.00;0.60;;;23.30;50.60;;;;;;5042339;28;20283;-59
2023/02/25 08:09:42;;;;;;;1.00;0.60;;;23.30;50.60;;;;;;5043346;28;20195;-59
2023/02/25 08:12:13;;;;;;;1.02;0.70;;;23.30;50.60;;;;;;5053696;28;20646;-60
2023/02/25 08:14:45;;;;;;;1.20;0.70;;;23.30;50.60;;;;;;5053649;28;20249;-60
2023/02/25 08:17:17;;;;;;;1.45;0.60;;;23.30;50.60;;;;;;5053756;28;20647;-59
2023/02/25 08:19:48;;;;;;;1.63;0.60;;;23.20;50.60;;;;;;5042953;28;20196;-60
2023/02/25 08:22:19;;;;;;;1.15;0.60;;;23.20;50.60;;;;;;5034293;28;20680;-59
2023/02/25 08:24:50;;;;;;;1.05;0.70;;;23.20;50.60;;;;;;5033629;28;20763;-60
2023/02/25 08:27:21;;;;;;;1.80;0.60;;;23.20;50.50;;;;;;5048133;28;20675;-59
2023/02/25 08:29:52;;;;;;;1.25;0.60;;;23.20;50.60;;;;;;5053869;28;20195;-60
2023/02/25 08:32:26;;;;;;;0.98;0.68;;;23.20;50.60;;;;;;5053703;28;20314;-59
2023/02/25 08:34:57;;;;;;;1.30;0.55;;;23.10;50.60;;;;;;5053401;28;20195;-59
2023/02/25 08:37:28;;;;;;;1.27;0.70;;;23.10;50.60;;;;;;5053869;28;20199;-60
2023/02/25 08:39:59;;;;;;;2.35;0.73;;;23.20;50.70;;;;;;5053428;28;20734;-60
2023/02/25 08:42:31;;;;;;;0.50;0.43;;;23.10;50.60;;;;;;5053453;28;20227;-60
2023/02/25 08:45:02;;;;;;;0.52;0.52;;;23.10;50.60;;;;;;5053428;28;20382;-60
2023/02/25 08:47:38;;;;;;;0.88;0.50;;;23.10;50.60;;;;;;5053316;28;20217;-59
2023/02/25 08:50:12;;;;;;;0.70;0.55;;;23.10;50.60;;;;;;5053490;28;20199;-60
2023/02/25 08:52:43;;;;;;;1.08;0.63;;;23.10;50.60;;;;;;5053920;28;20712;-60
2023/02/25 08:55:15;;;;;;;0.85;0.60;;;23.10;50.60;;;;;;5053298;28;20199;-59
2023/02/25 08:57:46;;;;;;;1.42;0.80;;;23.10;51.20;;;;;;5053245;28;20214;-59
2023/02/25 09:00:18;;;;;;;0.75;0.50;;;23.00;50.60;;;;;;5053085;28;20686;-58
2023/02/25 09:02:51;;;;;;;0.80;0.68;;;23.00;50.60;;;;;;5052877;28;20231;-58
2023/02/25 09:05:23;;;;;;;0.98;0.60;;;23.00;50.60;;;;;;5052855;28;20199;-59
2023/02/25 09:07:54;;;;;;;0.85;0.65;;;23.00;50.60;;;;;;5052885;28;20195;-59
2023/02/25 09:10:25;;;;;;;0.43;0.40;;;23.00;50.60;;;;;;5053069;28;20191;-60
2023/02/25 09:12:55;;;;;;;1.35;0.60;;;23.00;50.60;;;;;;5053016;28;20648;-59
2023/02/25 09:15:26;;;;;;;1.23;0.50;;;23.00;50.70;;;;;;5052936;28;20231;-60
2023/02/25 09:18:02;;;;;;;1.15;0.60;;;23.00;50.60;;;;;;5053342;28;20249;-60
2023/02/25 09:20:33;;;;;;;0.90;0.60;;;23.00;50.60;;;;;;5053455;28;20265;-59
2023/02/25 09:23:05;;;;;;;2.05;0.70;;;22.90;50.50;;;;;;5052512;28;20229;-59
2023/02/25 09:25:36;;;;;;;0.95;0.60;;;22.90;50.60;;;;;;5052269;28;20231;-58
2023/02/25 09:28:12;;;;;;;0.90;0.60;;;22.90;50.60;;;;;;5032895;28;20196;-59
2023/02/25 09:30:46;;;;;;;1.75;0.60;;;22.90;50.60;;;;;;5032457;28;20200;-59
2023/02/25 09:33:18;;;;;;;0.82;0.60;;;22.90;50.60;;;;;;5032453;28;20569;-58
2023/02/25 09:35:49;;;;;;;0.93;0.50;;;22.90;50.60;;;;;;5031753;28;20204;-60
2023/02/25 09:38:20;;;;;;;1.27;0.57;;;22.90;50.60;;;;;;5032371;28;20589;-59
2023/02/25 09:40:51;;;;;;;1.00;0.57;;;22.80;50.60;;;;;;5032669;28;20566;-59
2023/02/25 09:43:27;;;;;;;1.65;0.60;;;22.80;50.60;;;;;;5032236;28;20223;-58
2023/02/25 09:46:10;;;;;;;1.55;0.60;;;22.80;50.60;;;;;;5032551;28;20203;-59
2023/02/25 09:48:52;;;;;;;1.17;0.60;;;22.80;50.70;;;;;;5034969;28;20192;-59
2023/02/25 09:51:24;;;;;;;0.82;0.52;;;22.80;50.60;;;;;;5032836;28;20601;-59
2023/02/25 09:53:58;;;;;;;0.80;0.50;;;22.80;50.60;;;;;;5032490;28;20196;-59
2023/02/25 09:56:31;;;;;;;1.25;0.60;;;22.80;50.70;;;;;;5039001;28;20365;-59
2023/02/25 09:59:02;;;;;;;1.02;0.55;;;22.80;50.60;;;;;;5052283;28;20203;-59
2023/02/25 10:01:38;;;;;;;0.57;0.50;;;22.80;50.70;;;;;;5051502;28;20200;-59
2023/02/25 10:04:18;;;;;;;0.80;0.40;;;22.70;50.60;;;;;;5051494;28;20569;-59
2023/02/25 10:06:51;;;;;;;1.88;0.60;;;22.70;50.60;;;;;;5051498;28;20674;-58
2023/02/25 10:09:30;;;;;;;0.85;0.60;;;22.70;50.60;;;;;;5051476;28;20196;-59
2023/02/25 10:12:12;;;;;;;1.17;0.63;;;22.70;50.60;;;;;;5051878;28;20280;-59
2023/02/25 10:15:06;;;;;;;1.10;0.70;;;22.60;50.60;;;;;;5034498;28;20532;-59
2023/02/25 10:17:45;;;;;;;1.40;0.60;;;22.60;50.60;;;;;;5036765;28;20188;-59
2023/02/25 10:20:39;;;;;;;1.23;0.60;;;22.60;50.60;;;;;;5051915;28;20195;-59
2023/02/25 10:23:22;;;;;;;0.95;0.50;;;22.60;50.60;;;;;;5033709;28;20795;-58
2023/02/25 10:25:59;;;;;;;0.85;0.50;;;22.60;50.60;;;;;;5033133;28;20436;-60
2023/02/25 10:28:32;;;;;;;1.20;0.57;;;22.50;50.60;;;;;;5051436;28;20205;-59
2023/02/25 10:31:07;;;;;;;1.13;0.50;;;22.50;50.70;;;;;;5051525;28;20221;-59
2023/02/25 10:33:40;;;;;;;0.65;0.60;;;22.50;50.70;;;;;;5051497;28;20215;-60
2023/02/25 10:36:18;;;;;;;0.68;0.50;;;22.50;50.70;;;;;;5051574;28;20191;-60
2023/02/25 10:38:51;;;;;;;0.90;0.40;;;22.50;50.70;;;;;;5051728;28;20199;-60
2023/02/25 10:41:25;;;;;;;1.58;0.70;;;22.50;50.70;;;;;;5051167;28;20196;-60
2023/02/25 10:43:57;;;;;;;1.13;0.50;;;22.50;50.60;;;;;;5051488;28;20211;-60
2023/02/25 10:46:34;;;;;;;1.60;0.70;;;22.50;50.70;;;;;;5051635;28;20199;-60
2023/02/25 10:49:19;;;;;;;1.23;0.60;;;22.50;50.70;;;;;;5051325;28;20195;-60
2023/02/25 10:52:08;;;;;;;0.90;0.70;;;22.40;50.60;;;;;;5051199;28;20557;-60
2023/02/25 10:54:48;;;;;;;0.73;0.60;;;22.40;50.70;;;;;;5050925;28;20206;-59
2023/02/25 10:57:20;;;;;;;0.95;0.60;;;22.40;50.70;;;;;;5051505;28;20663;-60
2023/02/25 11:00:03;;;;;;;1.30;0.70;;;22.40;50.70;;;;;;5051477;28;20196;-61
2023/02/25 11:02:45;;;;;;;1.08;0.60;;;22.40;50.70;;;;;;5050990;28;20223;-61
2023/02/25 11:05:37;;;;;;;1.90;0.70;;;22.40;50.80;;;;;;5051188;28;20200;-60
2023/02/25 11:08:28;;;;;;;1.30;0.60;;;22.40;50.70;;;;;;5051155;28;20218;-60
2023/02/25 11:11:04;;;;;;;1.00;0.50;;;22.30;50.70;;;;;;5050929;28;20655;-61
2023/02/25 11:13:38;;;;;;;1.38;0.68;;;22.30;50.70;;;;;;5051251;28;20219;-60
2023/02/25 11:16:12;;;;;;;1.50;0.50;;;22.30;50.70;;;;;;5051087;28;20191;-60
2023/02/25 11:18:43;;;;;;;1.17;0.52;;;22.30;50.70;;;;;;5050968;28;20313;-60
2023/02/25 11:21:17;;;;;;;1.73;0.85;;;22.30;50.70;;;;;;5051153;28;20195;-60
2023/02/25 11:23:52;;;;;;;0.93;0.73;;;22.30;50.70;;;;;;5050666;28;20245;-60
2023/02/25 11:26:31;;;;;;;0.70;0.47;;;22.30;50.80;;;;;;5050867;28;20199;-60
2023/02/25 11:29:05;;;;;;;1.08;0.63;;;22.20;50.70;;;;;;5050823;28;20194;-59
2023/02/25 11:31:40;;;;;;;1.58;0.45;;;22.20;50.70;;;;;;5050442;28;20195;-61
2023/02/25 11:34:20;;;;;;;0.88;0.60;;;22.20;50.80;;;;;;5050713;28;20233;-61
2023/02/25 11:36:51;;;;;;;0.98;0.75;;;22.20;50.80;;;;;;5050635;28;20212;-61
2023/02/25 11:39:25;;;;;;;1.60;0.70;;;22.20;50.80;;;;;;5050797;28;20196;-61
2023/02/25 11:41:59;;;;;;;1.52;0.70;;;22.20;50.80;;;;;;5051022;28;20686;-61
2023/02/25 11:44:32;;;;;;;0.90;0.60;;;22.20;50.80;;;;;;5051131;28;20287;-60
2023/02/25 11:47:14;;;;;;;1.67;0.70;;;22.20;50.80;;;;;;5051158;28;20199;-60
2023/02/25 11:50:07;;;;;;;1.80;0.60;;;22.10;50.80;;;;;;5050469;28;20243;-61
2023/02/25 11:52:44;;;;;;;1.08;0.70;;;22.20;50.80;;;;;;5050388;28;20223;-61
2023/02/25 11:55:32;;;;;;;1.35;0.77;;;22.10;50.80;;;;;;5049223;28;20694;-61
2023/02/25 11:58:11;;;;;;;1.27;0.70;;;22.10;50.80;;;;;;5050881;28;20274;-60
2023/02/25 12:00:47;;;;;;;1.00;0.60;;;22.10;50.80;;;;;;5054563;28;20195;-58
2023/02/25 12:03:46;;;;;;;1.90;0.88;;;22.10;50.80;;;;;;5054167;28;20234;-59
2023/02/25 12:06:29;;;;;;;1.00;0.60;;;22.10;50.90;;;;;;5049562;28;20257;-59
2023/02/25 12:09:34;;;;;;;1.10;0.43;;;22.00;50.80;;;;;;5054244;28;20230;-58
2023/02/25 12:12:40;;;;;;;1.20;0.50;;;22.00;50.90;;;;;;5054348;28;20219;-58
2023/02/25 12:16:06;;;;;;;2.88;0.75;;;22.00;50.80;;;;;;5054328;28;20239;-58
2023/02/25 12:19:06;;;;;;;1.20;0.70;;;22.00;50.90;;;;;;4940397;28;20194;-59
2023/02/25 12:22:26;;;;;;;1.05;0.60;;;22.00;50.90;;;;;;5047741;28;20715;-59
2023/02/25 12:25:17;;;;;;;1.88;0.70;;;22.00;50.90;;;;;;4985505;28;20207;-57
2023/02/25 12:28:22;;;;;;;0.95;0.70;;;22.00;50.90;;;;;;5051996;28;20204;-59
2023/02/25 12:31:08;;;;;;;1.17;0.63;;;21.90;50.90;;;;;;5053991;28;20206;-59
2023/02/25 12:34:13;;;;;;;0.85;0.52;;;21.90;50.90;;;;;;5053436;28;20277;-58
2023/02/25 12:37:11;;;;;;;1.25;0.60;;;21.90;51.50;;;;;;5028485;28;20199;-58
2023/02/25 12:40:01;;;;;;;0.85;0.60;;;21.90;50.90;;;;;;5053322;28;20203;-59
2023/02/25 12:42:46;;;;;;;0.82;0.60;;;21.90;51.00;;;;;;5053520;28;20227;-59
2023/02/25 12:45:50;;;;;;;3.08;0.80;;;21.90;51.00;;;;;;5053370;28;20234;-58
2023/02/25 12:49:10;;;;;;;0.98;0.80;;;21.80;51.00;;;;;;5049060;28;20191;-59
2023/02/25 12:52:03;;;;;;;1.25;0.60;;;21.80;51.00;;;;;;5054406;28;20206;-59
2023/02/25 12:55:11;;;;;;;1.13;0.40;;;21.80;51.00;;;;;;5053687;28;20204;-58
2023/02/25 12:57:49;;;;;;;1.05;0.70;;;21.80;51.00;;;;;;5052984;28;20210;-58
2023/02/25 13:00:48;;;;;;;0.63;0.47;;;21.80;51.00;;;;;;5053333;28;20261;-59
2023/02/25 13:03:34;;;;;;;0.98;0.65;;;21.80;51.00;;;;;;5052909;28;20330;-59
2023/02/25 13:06:35;;;;;;;1.13;0.50;;;21.80;51.00;;;;;;5053117;28;20203;-59
2023/02/25 13:09:30;;;;;;;0.85;0.60;;;21.70;51.00;;;;;;5052580;28;20196;-58
2023/02/25 13:12:23;;;;;;;0.70;0.70;;;21.80;51.10;;;;;;5052250;28;20684;-59
2023/02/25 13:15:04;;;;;;;0.95;0.60;;;21.70;51.00;;;;;;5052546;28;20282;-59
2023/02/25 13:17:59;;;;;;;0.73;0.60;;;21.70;51.00;;;;;;5052923;28;20199;-58
2023/02/25 13:20:59;;;;;;;1.73;0.70;;;21.70;51.00;;;;;;5052834;28;20203;-59
2023/02/25 13:23:58;;;;;;;0.57;0.50;;;21.70;51.10;;;;;;5040014;28;20227;-59
2023/02/25 13:27:04;;;;;;;1.20;0.70;;;21.70;51.10;;;;;;5036511;28;20257;-59
2023/02/25 13:30:02;;;;;;;1.15;0.82;;;21.60;51.00;;;;;;5033212;28;20195;-58
2023/02/25 13:32:40;;;;;;;0.95;0.60;;;21.60;51.00;;;;;;5047367;28;20315;-59
2023/02/25 13:35:24;;;;;;;1.08;0.60;;;21.60;51.00;;;;;;5052631;28;20191;-58
2023/02/25 13:38:07;;;;;;;1.75;0.80;;;21.60;51.10;;;;;;5052484;28;20215;-59
2023/02/25 13:40:51;;;;;;;1.42;0.60;;;21.60;51.10;;;;;;5052891;28;20206;-59
2023/02/25 13:43:55;;;;;;;1.67;0.63;;;21.60;51.10;;;;;;5052062;28;20228;-58
2023/02/25 13:46:54;;;;;;;1.42;0.68;;;21.60;51.10;;;;;;5019160;28;20206;-58
2023/02/25 13:49:57;;;;;;;0.70;0.50;;;21.60;51.10;;;;;;5052069;28;20571;-58
2023/02/25 13:52:45;;;;;;;0.90;0.50;;;21.60;51.10;;;;;;5023667;28;20218;-59
2023/02/25 13:55:46;;;;;;;0.85;0.60;;;21.60;51.10;;;;;;5051816;28;20274;-58
2023/02/25 13:58:50;;;;;;;0.73;0.60;;;21.50;51.10;;;;;;5052234;28;20191;-60